Time;durP1;ratioP1;P1;durP2;ratioP2;P2;SDS_P1;SDS_P2;PMS_P1;PMS_P2;Temp;Humidity;BMP_temperature;BMP_pressure;BME280_temperature;BME280_humidity;BME280_pressure;Samples;Min_cycle;Max_cycle;Signal;HPM_P1;HPM_P2
2022/01/17 00:01:59;;;;;;;7.22;5.03;;;23.10;22.60;;;;;;5091467;28;20151;-62
2022/01/17 00:04:25;;;;;;;2.50;1.58;;;23.10;23.80;;;;;;5087718;28;20073;-62
2022/01/17 00:06:52;;;;;;;2.17;1.08;;;23.00;22.50;;;;;;5088760;28;20086;-62
2022/01/17 00:09:18;;;;;;;5.03;1.52;;;22.90;22.40;;;;;;5087919;28;20526;-62
2022/01/17 00:11:48;;;;;;;2.88;0.90;;;22.90;23.20;;;;;;5093090;28;20077;-62
2022/01/17 00:14:17;;;;;;;1.92;0.95;;;22.80;24.00;;;;;;5086097;28;20134;-62
2022/01/17 00:16:51;;;;;;;3.35;1.20;;;22.80;24.80;;;;;;5090156;28;20131;-62
2022/01/17 00:19:42;;;;;;;8.65;1.10;;;22.70;24.80;;;;;;5086365;28;20096;-61
2022/01/17 00:22:05;;;;;;;4.97;3.20;;;22.60;25.00;;;;;;5087346;28;20163;-62
2022/01/17 00:24:31;;;;;;;5.65;3.08;;;22.50;24.30;;;;;;5089800;28;20304;-62
2022/01/17 00:26:57;;;;;;;4.38;2.00;;;22.40;24.60;;;;;;5087631;28;20077;-62
2022/01/17 00:29:24;;;;;;;4.90;1.88;;;22.30;25.90;;;;;;5087771;28;20129;-63
2022/01/17 00:31:50;;;;;;;7.38;1.80;;;22.20;27.10;;;;;;5091703;28;20119;-60
2022/01/17 00:34:17;;;;;;;4.25;1.70;;;22.00;27.20;;;;;;5090128;28;20081;-62
2022/01/17 00:36:43;;;;;;;9.25;1.70;;;22.00;26.40;;;;;;5085343;28;20150;-62
2022/01/17 00:39:10;;;;;;;6.45;1.52;;;21.80;27.00;;;;;;5087587;28;20092;-62
2022/01/17 00:41:36;;;;;;;6.10;2.30;;;21.70;27.30;;;;;;5086498;28;20164;-61
2022/01/17 00:44:04;;;;;;;3.65;1.40;;;21.60;27.80;;;;;;5086220;28;20073;-60
2022/01/17 00:46:31;;;;;;;6.32;1.67;;;21.50;28.00;;;;;;5088380;28;20109;-61
2022/01/17 00:48:58;;;;;;;7.75;2.40;;;21.30;28.60;;;;;;5087310;28;20069;-60
2022/01/17 00:51:25;;;;;;;11.60;2.85;;;21.20;29.20;;;;;;5089228;28;20104;-62
2022/01/17 00:53:51;;;;;;;13.88;4.43;;;21.10;29.20;;;;;;5088828;28;20127;-63
2022/01/17 00:56:22;;;;;;;13.18;4.50;;;20.90;29.50;;;;;;5087121;28;20519;-61
2022/01/17 00:58:49;;;;;;;16.42;5.05;;;20.80;29.80;;;;;;5086007;28;20179;-57
2022/01/17 01:01:16;;;;;;;15.13;4.38;;;20.60;30.00;;;;;;5087547;28;20077;-61
2022/01/17 01:03:43;;;;;;;19.80;6.13;;;20.50;30.60;;;;;;5087967;28;20103;-62
2022/01/17 01:06:09;;;;;;;23.65;8.65;;;20.40;31.20;;;;;;5088232;28;20095;-62
2022/01/17 01:08:36;;;;;;;27.58;8.70;;;20.40;31.20;;;;;;5086980;28;20080;-61
2022/01/17 01:11:02;;;;;;;49.38;18.85;;;20.20;31.80;;;;;;5087282;28;20756;-61
2022/01/17 01:13:30;;;;;;;65.75;25.58;;;20.10;31.50;;;;;;5087050;28;20169;-61
2022/01/17 01:21:42;;;;;;;41.17;17.13;;;19.80;32.30;;;;;;5086788;28;20064;-61
2022/01/17 01:29:30;;;;;;;27.77;10.77;;;19.50;33.10;;;;;;5087247;28;20164;-64
2022/01/17 01:32:02;;;;;;;20.40;7.90;;;19.40;33.40;;;;;;5086092;28;20081;-62
2022/01/17 01:34:36;;;;;;;21.15;8.88;;;19.30;33.70;;;;;;5090062;28;20180;-57
2022/01/17 01:37:04;;;;;;;18.75;6.78;;;19.20;33.70;;;;;;5088850;28;20084;-61
2022/01/17 01:39:31;;;;;;;20.00;6.22;;;19.20;33.70;;;;;;5091615;28;20076;-61
2022/01/17 01:41:59;;;;;;;20.55;5.75;;;19.10;34.00;;;;;;5089270;28;20504;-62
2022/01/17 01:44:27;;;;;;;14.55;4.72;;;19.00;34.20;;;;;;5089214;28;20538;-63
2022/01/17 01:46:55;;;;;;;13.85;5.43;;;19.00;34.50;;;;;;5089184;28;20123;-62
2022/01/17 01:49:23;;;;;;;20.45;4.88;;;18.90;34.80;;;;;;5092250;28;20072;-59
2022/01/17 01:51:50;;;;;;;14.30;4.57;;;18.90;34.90;;;;;;5089882;28;20423;-62
2022/01/17 01:54:18;;;;;;;16.38;4.43;;;18.80;35.20;;;;;;5090503;28;20072;-62
2022/01/17 01:56:48;;;;;;;9.43;4.00;;;18.70;35.30;;;;;;5090467;28;20450;-61
2022/01/17 01:59:19;;;;;;;18.73;10.43;;;18.60;35.00;;;;;;5091802;28;20064;-62
2022/01/17 02:01:46;;;;;;;13.60;7.07;;;18.60;35.10;;;;;;5090651;28;20225;-63
2022/01/17 02:04:13;;;;;;;16.13;7.82;;;18.50;35.20;;;;;;5091159;28;20092;-62
2022/01/17 02:06:40;;;;;;;12.88;5.95;;;18.50;35.40;;;;;;5091904;28;20068;-63
2022/01/17 02:09:07;;;;;;;11.32;6.90;;;18.40;35.40;;;;;;5089572;28;20080;-59
2022/01/17 02:11:35;;;;;;;15.10;7.55;;;18.40;35.60;;;;;;5091137;28;20111;-62
2022/01/17 02:14:02;;;;;;;14.07;7.93;;;18.40;35.90;;;;;;5091789;28;20080;-56
2022/01/17 02:16:29;;;;;;;18.67;6.28;;;18.30;35.90;;;;;;5090756;28;20126;-61
2022/01/17 02:18:55;;;;;;;19.58;6.40;;;18.20;35.90;;;;;;5093266;28;20065;-57
2022/01/17 02:21:45;;;;;;;17.02;6.20;;;18.20;35.80;;;;;;5092042;28;20079;-60
2022/01/17 02:24:18;;;;;;;12.43;6.15;;;18.20;36.10;;;;;;5092917;28;20084;-58
2022/01/17 02:26:45;;;;;;;17.25;7.53;;;18.10;36.20;;;;;;5090021;28;20081;-62
2022/01/17 02:29:12;;;;;;;19.63;8.23;;;18.10;36.20;;;;;;5091593;28;20069;-57
2022/01/17 02:31:38;;;;;;;22.60;11.77;;;18.00;36.20;;;;;;5091209;28;20077;-59
2022/01/17 02:34:05;;;;;;;27.45;11.93;;;17.90;36.10;;;;;;5073951;28;20087;-62
2022/01/17 02:36:32;;;;;;;27.77;12.20;;;17.90;36.40;;;;;;5088588;28;20095;-63
2022/01/17 02:38:59;;;;;;;30.15;13.10;;;17.90;36.70;;;;;;5089829;28;20073;-62
2022/01/17 02:41:30;;;;;;;29.48;14.02;;;17.90;36.90;;;;;;5090457;28;20154;-64
2022/01/17 02:43:57;;;;;;;31.92;14.25;;;17.90;37.50;;;;;;5090108;28;20095;-62
2022/01/17 02:46:26;;;;;;;24.80;14.98;;;17.90;37.60;;;;;;5089323;28;20116;-56
2022/01/17 02:48:58;;;;;;;36.85;16.98;;;17.80;37.90;;;;;;5102198;28;20083;-59
2022/01/17 02:51:25;;;;;;;50.70;22.13;;;17.80;38.10;;;;;;5090121;28;20441;-62
2022/01/17 02:53:52;;;;;;;42.17;21.25;;;17.80;38.40;;;;;;5090797;28;20137;-58
2022/01/17 02:56:19;;;;;;;58.80;24.88;;;17.70;38.30;;;;;;5089037;28;20085;-60
2022/01/17 02:58:46;;;;;;;57.85;28.40;;;17.70;38.50;;;;;;5088745;28;20095;-63
2022/01/17 03:01:15;;;;;;;55.60;27.90;;;17.60;38.30;;;;;;5089778;28;20076;-62
2022/01/17 03:03:42;;;;;;;77.28;32.50;;;17.60;38.30;;;;;;5091008;28;20081;-59
2022/01/17 03:06:10;;;;;;;96.30;35.40;;;17.50;38.00;;;;;;5094564;28;20088;-61
2022/01/17 03:08:38;;;;;;;87.75;36.58;;;17.50;37.80;;;;;;5092739;28;20081;-57
2022/01/17 03:11:06;;;;;;;82.35;33.70;;;17.50;38.00;;;;;;5089311;28;20104;-63
2022/01/17 03:13:36;;;;;;;96.90;36.80;;;17.50;38.20;;;;;;5088740;28;20093;-57
2022/01/17 03:16:07;;;;;;;80.78;34.90;;;17.40;38.10;;;;;;5089296;28;20156;-61
2022/01/17 03:18:39;;;;;;;69.82;32.30;;;17.40;38.00;;;;;;5089652;28;20086;-60
2022/01/17 03:21:07;;;;;;;80.68;34.50;;;17.30;37.90;;;;;;5088044;28;20120;-60
2022/01/17 03:23:35;;;;;;;80.43;33.67;;;17.30;38.20;;;;;;5089049;28;20142;-62
2022/01/17 03:26:01;;;;;;;71.22;32.90;;;17.40;38.70;;;;;;5091092;28;20133;-64
2022/01/17 03:28:28;;;;;;;79.65;31.13;;;18.00;69.00;;;;;;5088331;28;20431;-58
2022/01/17 03:30:55;;;;;;;68.88;31.60;;;17.20;38.30;;;;;;5094973;22;20057;-61
2022/01/17 03:33:22;;;;;;;72.78;31.40;;;17.40;50.90;;;;;;5050911;28;20021;-61
2022/01/17 03:35:48;;;;;;;74.55;31.08;;;17.20;38.40;;;;;;5050872;28;20029;-60
2022/01/17 03:38:19;;;;;;;62.45;28.05;;;17.20;38.90;;;;;;5049474;28;20509;-62
2022/01/17 03:40:47;;;;;;;65.40;29.52;;;17.20;38.30;;;;;;5050475;28;20094;-62
2022/01/17 03:43:14;;;;;;;78.78;31.50;;;17.20;49.10;;;;;;5049567;28;20021;-59
2022/01/17 03:45:41;;;;;;;86.40;34.97;;;;;;;;;;5050235;28;20414;-59
2022/01/17 03:48:08;;;;;;;88.00;37.45;;;17.20;61.80;;;;;;5049779;28;20554;-63
2022/01/17 03:50:34;;;;;;;82.68;38.22;;;17.20;41.60;;;;;;5052290;28;20487;-61
2022/01/17 03:53:01;;;;;;;92.28;37.35;;;;;;;;;;5049303;28;20029;-62
2022/01/17 03:55:28;;;;;;;92.57;37.55;;;17.60;70.50;;;;;;5049057;28;20025;-60
2022/01/17 03:57:54;;;;;;;100.38;38.15;;;17.60;39.80;;;;;;5049129;28;20251;-61
2022/01/17 04:00:20;;;;;;;;;;;;;;;;;;5049521;28;20036;-62
2022/01/17 04:02:47;;;;;;;90.00;36.78;;;17.20;39.60;;;;;;5050473;28;20003;-61
2022/01/17 04:05:14;;;;;;;89.00;36.53;;;17.20;42.90;;;;;;5049955;28;20471;-57
2022/01/17 04:07:40;;;;;;;84.82;33.97;;;16.90;39.80;;;;;;5050685;28;20554;-61
2022/01/17 04:10:07;;;;;;;86.40;37.25;;;17.00;40.40;;;;;;5049228;28;20531;-58
2022/01/17 04:12:34;;;;;;;86.18;35.15;;;16.90;40.40;;;;;;5049189;28;20442;-62
2022/01/17 04:15:00;;;;;;;102.15;35.70;;;16.90;41.00;;;;;;5048759;28;20074;-62
2022/01/17 04:17:29;;;;;;;;;;;16.90;40.60;;;;;;5049475;28;20092;-63
2022/01/17 04:20:06;;;;;;;90.57;36.35;;;16.80;40.70;;;;;;5049564;28;19957;-64
2022/01/17 04:22:41;;;;;;;99.15;36.83;;;17.20;51.70;;;;;;5049443;28;20568;-61
2022/01/17 04:25:08;;;;;;;109.25;38.13;;;16.90;41.50;;;;;;5048395;28;20048;-61
2022/01/17 04:27:35;;;;;;;100.65;36.13;;;16.90;53.60;;;;;;5048634;28;20053;-62
2022/01/17 04:30:06;;;;;;;90.22;34.45;;;16.80;41.60;;;;;;5050267;28;20208;-63
2022/01/17 04:32:32;;;;;;;110.35;35.90;;;16.80;42.20;;;;;;5048803;28;20115;-61
2022/01/17 04:34:59;;;;;;;102.63;36.28;;;;;;;;;;5050259;28;20081;-61
2022/01/17 04:37:25;;;;;;;;;;;16.80;42.30;;;;;;5050099;28;20099;-62
2022/01/17 04:39:51;;;;;;;106.53;36.05;;;16.70;56.40;;;;;;5048465;28;20334;-61
2022/01/17 04:42:25;;;;;;;112.80;37.00;;;17.20;60.30;;;;;;5048573;28;20073;-62
2022/01/17 04:47:41;;;;;;;91.03;33.80;;;16.70;42.00;;;;;;5048992;28;20106;-62
2022/01/17 04:50:11;;;;;;;90.90;34.90;;;16.20;49.40;;;;;;5048380;28;20479;-62
2022/01/17 04:52:38;;;;;;;104.93;36.45;;;16.70;46.80;;;;;;5047257;28;20594;-63
2022/01/17 04:55:06;;;;;;;106.88;35.83;;;18.10;43.90;;;;;;5048161;28;20055;-63
2022/01/17 04:57:33;;;;;;;108.38;38.83;;;16.60;42.20;;;;;;5048469;28;20088;-66
2022/01/17 04:59:59;;;;;;;;;;;;;;;;;;5049235;28;20060;-62
2022/01/17 05:02:27;;;;;;;115.70;36.83;;;16.60;50.90;;;;;;5047714;28;19920;-62
2022/01/17 05:04:53;;;;;;;96.30;33.78;;;16.20;82.90;;;;;;5048816;28;20048;-62
2022/01/17 05:07:19;;;;;;;;;;;16.70;44.40;;;;;;5052126;28;20497;-62
2022/01/17 05:09:47;;;;;;;110.47;37.00;;;16.60;44.50;;;;;;5038811;28;19956;-63
2022/01/17 05:12:14;;;;;;;107.32;37.13;;;16.60;44.60;;;;;;5051000;28;20532;-62
2022/01/17 05:14:44;;;;;;;122.50;37.10;;;16.50;44.70;;;;;;5054394;28;20091;-61
2022/01/17 05:19:58;;;;;;;106.90;41.85;;;16.60;44.30;;;;;;5051804;28;20520;-63
2022/01/17 05:22:29;;;;;;;104.47;40.67;;;16.60;43.80;;;;;;5051432;28;20548;-62
2022/01/17 05:24:55;;;;;;;120.53;41.85;;;16.50;44.10;;;;;;5052007;28;20097;-63
2022/01/17 05:27:21;;;;;;;;;;;16.50;44.20;;;;;;5052151;28;20109;-61
2022/01/17 05:29:48;;;;;;;120.68;47.55;;;16.40;44.00;;;;;;5052084;28;20046;-63
2022/01/17 05:32:15;;;;;;;149.30;52.83;;;16.50;44.00;;;;;;5050765;28;20121;-64
2022/01/17 05:34:41;;;;;;;133.60;52.83;;;16.30;44.40;;;;;;5051796;28;20534;-60
2022/01/17 05:37:09;;;;;;;161.25;58.42;;;;;;;;;;5056226;28;20096;-64
2022/01/17 05:39:36;;;;;;;135.65;55.80;;;16.10;79.10;;;;;;5053274;28;20122;-61
2022/01/17 05:42:04;;;;;;;158.68;56.92;;;16.30;82.30;;;;;;5051650;28;20027;-60
2022/01/17 05:44:31;;;;;;;144.30;58.65;;;16.40;43.20;;;;;;5051057;28;20048;-64
2022/01/17 05:46:58;;;;;;;155.88;58.70;;;16.40;43.70;;;;;;5050316;28;20459;-64
2022/01/17 05:49:24;;;;;;;157.48;59.03;;;16.40;43.50;;;;;;5050599;28;20093;-63
2022/01/17 05:51:50;;;;;;;;;;;16.30;43.70;;;;;;5050443;28;20077;-62
2022/01/17 05:54:17;;;;;;;151.93;59.40;;;16.30;44.20;;;;;;5051215;28;20454;-63
2022/01/17 05:56:43;;;;;;;;;;;16.20;44.60;;;;;;5051216;28;20440;-62
2022/01/17 05:59:09;;;;;;;151.32;58.15;;;16.20;45.10;;;;;;5051094;28;20450;-64
2022/01/17 06:01:42;;;;;;;157.30;58.92;;;16.20;45.00;;;;;;5051000;28;20085;-62
2022/01/17 06:04:09;;;;;;;162.77;56.53;;;16.10;44.20;;;;;;5051472;28;20080;-63
2022/01/17 06:06:35;;;;;;;151.80;53.92;;;16.20;45.00;;;;;;5050798;28;20151;-61
2022/01/17 06:09:01;;;;;;;;;;;16.20;44.70;;;;;;5051943;28;20510;-62
2022/01/17 06:11:27;;;;;;;159.77;53.38;;;16.50;49.70;;;;;;5053962;28;19958;-61
2022/01/17 06:13:54;;;;;;;166.70;55.78;;;16.10;44.50;;;;;;5050478;28;20072;-61
2022/01/17 06:16:20;;;;;;;;;;;16.10;45.10;;;;;;5052212;28;20458;-60
2022/01/17 06:18:46;;;;;;;148.82;54.95;;;16.10;70.40;;;;;;5051444;28;19936;-63
2022/01/17 06:21:12;;;;;;;;;;;16.00;45.50;;;;;;5050868;28;20172;-61
2022/01/17 06:23:39;;;;;;;170.10;55.33;;;16.10;45.70;;;;;;5049975;28;19908;-62
2022/01/17 06:26:05;;;;;;;;;;;;;;;;;;5051367;28;20040;-62
2022/01/17 06:28:31;;;;;;;170.57;53.22;;;16.30;67.00;;;;;;5051047;28;19999;-62
2022/01/17 06:30:57;;;;;;;;;;;15.90;66.20;;;;;;5050887;28;20449;-62
2022/01/17 06:33:24;;;;;;;144.65;51.53;;;16.10;67.10;;;;;;5050493;28;19920;-63
2022/01/17 06:35:50;;;;;;;146.20;52.10;;;15.80;45.60;;;;;;5055139;28;20120;-62
2022/01/17 06:38:17;;;;;;;135.45;49.53;;;;;;;;;;5050233;28;20104;-61
2022/01/17 06:40:43;;;;;;;133.82;50.42;;;15.90;70.10;;;;;;5051822;28;20062;-61
2022/01/17 06:43:10;;;;;;;;;;;15.80;45.00;;;;;;5051797;28;20070;-62
2022/01/17 06:45:38;;;;;;;148.75;50.30;;;18.00;52.20;;;;;;5053583;28;20416;-62
2022/01/17 06:48:08;;;;;;;139.88;50.00;;;15.70;57.80;;;;;;5049907;28;20106;-60
2022/01/17 06:50:35;;;;;;;142.75;50.53;;;15.30;80.10;;;;;;5050569;28;20029;-62
2022/01/17 06:53:03;;;;;;;154.43;49.85;;;15.70;66.40;;;;;;5050612;28;20017;-61
2022/01/17 06:55:30;;;;;;;138.25;49.00;;;;;;;;;;5049742;28;20025;-62
2022/01/17 06:57:57;;;;;;;142.85;48.92;;;;;;;;;;5049446;28;20066;-63
2022/01/17 07:00:23;;;;;;;148.23;51.10;;;15.30;48.70;;;;;;5049041;28;20468;-63
2022/01/17 07:02:50;;;;;;;;;;;15.50;48.50;;;;;;5049239;28;20025;-63
2022/01/17 07:05:17;;;;;;;159.95;49.78;;;15.60;46.10;;;;;;5050877;28;19917;-61
2022/01/17 07:07:43;;;;;;;;;;;15.50;46.70;;;;;;5050555;28;20080;-63
2022/01/17 07:10:10;;;;;;;130.53;48.00;;;16.70;50.50;;;;;;5048443;28;20421;-60
2022/01/17 07:12:36;;;;;;;150.55;49.30;;;15.30;47.00;;;;;;5049996;28;20142;-63
2022/01/17 07:15:06;;;;;;;;;;;15.40;45.70;;;;;;5049122;28;20025;-61
2022/01/17 07:17:33;;;;;;;165.40;53.45;;;15.40;46.00;;;;;;5048000;28;20014;-63
2022/01/17 07:20:01;;;;;;;163.85;52.20;;;15.10;73.70;;;;;;5049069;28;20390;-61
2022/01/17 07:22:27;;;;;;;146.40;51.08;;;15.30;47.20;;;;;;5048313;28;20073;-61
2022/01/17 07:24:56;;;;;;;;;;;15.40;45.90;;;;;;5048888;28;20072;-62
2022/01/17 07:27:24;;;;;;;178.73;53.60;;;15.30;45.80;;;;;;5049166;28;20054;-62
2022/01/17 07:29:51;;;;;;;179.02;56.35;;;15.30;46.10;;;;;;5048243;28;20078;-61
2022/01/17 07:32:17;;;;;;;145.43;52.08;;;15.30;46.90;;;;;;5046757;28;20125;-61
2022/01/17 07:34:44;;;;;;;152.13;51.53;;;15.40;47.40;;;;;;5050043;28;20069;-62
2022/01/17 07:37:10;;;;;;;;;;;15.40;47.00;;;;;;5032151;28;20093;-61
2022/01/17 07:39:36;;;;;;;161.48;54.28;;;15.40;46.10;;;;;;5048419;28;19957;-62
2022/01/17 07:42:02;;;;;;;;;;;15.30;46.20;;;;;;5048275;28;20082;-61
2022/01/17 07:44:30;;;;;;;205.63;59.83;;;15.20;46.20;;;;;;5049144;28;20020;-62
2022/01/17 07:47:00;;;;;;;177.77;58.47;;;15.20;47.80;;;;;;5046818;28;20105;-62
2022/01/17 07:49:27;;;;;;;173.93;56.67;;;15.30;48.00;;;;;;5047961;28;20598;-62
2022/01/17 07:52:01;;;;;;;188.23;59.33;;;15.30;47.50;;;;;;5047529;28;20528;-62
2022/01/17 07:54:29;;;;;;;177.52;58.85;;;15.30;47.50;;;;;;5047649;28;20160;-63
2022/01/17 07:56:57;;;;;;;201.93;56.65;;;15.30;47.60;;;;;;5046997;28;20081;-64
2022/01/17 07:59:23;;;;;;;158.07;52.75;;;15.30;47.50;;;;;;5048548;28;20119;-62
2022/01/17 08:01:50;;;;;;;;;;;15.30;47.70;;;;;;5049201;28;20096;-62
2022/01/17 08:04:16;;;;;;;176.98;55.35;;;15.10;47.30;;;;;;5046768;28;19963;-62
2022/01/17 08:06:43;;;;;;;176.93;54.95;;;15.00;47.20;;;;;;5048341;28;20542;-62
2022/01/17 08:09:10;;;;;;;;;;;14.90;47.20;;;;;;5048784;28;20238;-64
2022/01/17 08:11:37;;;;;;;189.68;56.22;;;14.80;47.40;;;;;;5046247;28;19981;-62
2022/01/17 08:14:04;;;;;;;209.00;57.72;;;14.90;48.00;;;;;;5048064;28;20078;-62
2022/01/17 08:16:30;;;;;;;200.07;57.42;;;14.90;49.00;;;;;;5047661;28;20180;-61
2022/01/17 08:18:56;;;;;;;;;;;15.00;49.30;;;;;;5047544;28;20089;-60
2022/01/17 08:21:23;;;;;;;174.77;53.97;;;14.90;48.70;;;;;;5054335;28;20415;-61
2022/01/17 08:23:49;;;;;;;;;;;14.90;48.50;;;;;;5046597;28;20199;-61
2022/01/17 08:26:17;;;;;;;180.18;57.13;;;14.80;48.80;;;;;;5047319;28;19957;-61
2022/01/17 08:28:44;;;;;;;182.88;55.00;;;14.70;48.30;;;;;;5047296;28;20073;-63
2022/01/17 08:31:10;;;;;;;;;;;14.80;49.90;;;;;;5047652;28;20156;-62
2022/01/17 08:33:36;;;;;;;178.27;54.50;;;14.80;48.70;;;;;;5046700;28;19957;-56
2022/01/17 08:36:02;;;;;;;;;;;14.70;48.60;;;;;;5049777;28;20125;-62
2022/01/17 08:38:30;;;;;;;173.70;53.10;;;14.60;48.20;;;;;;5049145;28;20366;-61
2022/01/17 08:40:58;;;;;;;175.77;54.13;;;14.60;48.60;;;;;;5047264;28;20208;-60
2022/01/17 08:43:25;;;;;;;176.23;57.38;;;14.60;49.00;;;;;;5048845;28;20380;-63
2022/01/17 08:45:53;;;;;;;156.85;52.13;;;14.70;49.20;;;;;;5046589;28;20070;-62
2022/01/17 08:48:20;;;;;;;171.88;54.28;;;14.70;48.80;;;;;;5047091;28;20547;-62
2022/01/17 08:50:47;;;;;;;179.52;55.13;;;14.60;48.90;;;;;;5030646;28;20559;-65
2022/01/17 08:53:15;;;;;;;174.48;53.90;;;14.60;48.90;;;;;;5048269;28;20073;-64
2022/01/17 08:55:46;;;;;;;185.25;53.00;;;14.60;49.60;;;;;;5048526;28;20070;-61
2022/01/17 08:58:15;;;;;;;190.30;52.45;;;14.60;49.80;;;;;;5046432;28;20188;-62
2022/01/17 09:00:41;;;;;;;184.13;52.10;;;14.60;49.80;;;;;;5048170;28;20033;-61
2022/01/17 09:03:08;;;;;;;170.93;55.15;;;14.70;50.30;;;;;;5046979;28;20113;-61
2022/01/17 09:05:35;;;;;;;169.43;53.55;;;14.60;49.80;;;;;;5047711;28;20101;-61
2022/01/17 09:08:03;;;;;;;171.02;56.28;;;14.60;82.00;;;;;;5046975;28;20072;-63
2022/01/17 09:10:30;;;;;;;172.40;55.40;;;14.50;51.00;;;;;;5048619;28;20435;-59
2022/01/17 09:12:57;;;;;;;188.95;53.70;;;14.40;50.90;;;;;;5050876;28;20132;-63
2022/01/17 09:15:24;;;;;;;196.50;53.65;;;14.40;50.90;;;;;;5047135;28;20070;-63
2022/01/17 09:17:51;;;;;;;174.48;55.75;;;14.30;50.70;;;;;;5047420;28;20098;-62
2022/01/17 09:20:17;;;;;;;;;;;14.40;50.60;;;;;;5046970;28;20076;-64
2022/01/17 09:22:43;;;;;;;162.75;52.28;;;14.30;50.30;;;;;;5047022;28;19957;-63
2022/01/17 09:25:09;;;;;;;;;;;14.30;50.40;;;;;;5047293;28;20131;-62
2022/01/17 09:27:37;;;;;;;143.60;51.70;;;14.40;68.20;;;;;;5048098;28;19972;-62
2022/01/17 09:30:10;;;;;;;152.40;50.63;;;14.10;67.10;;;;;;5047426;28;20050;-62
2022/01/17 09:32:37;;;;;;;154.95;52.95;;;16.00;50.70;;;;;;5048702;28;20507;-60
2022/01/17 09:35:05;;;;;;;164.60;55.38;;;13.60;71.30;;;;;;5047439;28;20084;-61
2022/01/17 09:37:33;;;;;;;163.80;54.95;;;13.30;49.80;;;;;;5047137;28;20176;-62
2022/01/17 09:40:00;;;;;;;158.45;53.53;;;14.10;51.10;;;;;;5068640;22;20125;-62
2022/01/17 09:42:27;;;;;;;178.27;55.28;;;14.10;51.70;;;;;;5047740;28;20459;-61
2022/01/17 09:44:53;;;;;;;168.88;53.85;;;14.10;51.70;;;;;;5047831;28;20073;-62
2022/01/17 09:47:20;;;;;;;169.82;54.03;;;14.10;52.00;;;;;;5046786;28;20154;-63
2022/01/17 09:49:53;;;;;;;;;;;14.00;52.00;;;;;;5047134;28;20069;-60
2022/01/17 09:52:36;;;;;;;156.45;52.30;;;13.90;51.90;;;;;;5047451;28;19957;-63
2022/01/17 09:55:25;;;;;;;176.20;55.50;;;13.80;51.60;;;;;;5048556;28;20078;-61
2022/01/17 09:58:06;;;;;;;171.25;54.75;;;13.70;51.20;;;;;;5052030;28;20124;-61
2022/01/17 10:00:39;;;;;;;181.00;56.58;;;13.70;52.00;;;;;;5032152;28;20073;-62
2022/01/17 10:03:12;;;;;;;189.18;57.78;;;13.70;51.20;;;;;;5065500;28;20085;-61
2022/01/17 10:05:40;;;;;;;174.73;55.40;;;13.80;51.90;;;;;;5049648;28;20066;-61
2022/01/17 10:08:16;;;;;;;207.23;58.10;;;13.80;51.70;;;;;;5034559;28;20098;-61
2022/01/17 10:10:56;;;;;;;166.13;55.58;;;13.70;51.50;;;;;;5051212;28;20112;-60
2022/01/17 10:13:37;;;;;;;198.27;61.10;;;13.70;51.60;;;;;;5049767;28;20073;-61
2022/01/17 10:16:08;;;;;;;204.40;58.92;;;13.70;51.50;;;;;;5053218;28;20069;-61
2022/01/17 10:18:42;;;;;;;198.57;60.72;;;13.70;52.00;;;;;;5049736;28;20069;-61
2022/01/17 10:21:18;;;;;;;198.38;62.33;;;13.70;52.60;;;;;;5049961;28;20066;-61
2022/01/17 10:35:14;;;;;;;198.02;61.65;;;13.70;52.00;;;;;;4989888;28;20669;-63
2022/01/17 10:37:54;;;;;;;225.23;69.07;;;13.70;51.50;;;;;;4989236;28;20098;-61
2022/01/17 10:40:20;;;;;;;188.55;66.25;;;13.70;51.50;;;;;;4982122;28;20204;-61
2022/01/17 10:42:48;;;;;;;;;;;13.80;51.60;;;;;;4989047;28;20434;-61
2022/01/17 10:45:17;;;;;;;239.23;68.88;;;13.80;52.00;;;;;;4988875;28;20352;-63
2022/01/17 10:47:45;;;;;;;211.07;70.50;;;13.80;52.20;;;;;;4988928;28;20090;-62
2022/01/17 10:50:15;;;;;;;222.40;70.82;;;13.80;51.40;;;;;;4989127;28;20529;-62
2022/01/17 10:52:46;;;;;;;230.55;76.40;;;13.70;51.80;;;;;;4989166;28;20126;-65
2022/01/17 10:55:16;;;;;;;221.93;73.38;;;13.70;52.20;;;;;;4973148;28;20169;-63
2022/01/17 10:57:46;;;;;;;249.25;75.75;;;13.60;51.60;;;;;;4972273;28;20170;-61
2022/01/17 11:00:18;;;;;;;212.52;69.22;;;13.60;52.50;;;;;;4988155;28;20138;-63
2022/01/17 11:02:49;;;;;;;220.35;69.40;;;13.70;52.00;;;;;;4987883;28;20581;-61
2022/01/17 11:05:18;;;;;;;224.82;68.38;;;13.70;51.60;;;;;;4998140;28;20089;-62
2022/01/17 11:07:46;;;;;;;217.88;69.50;;;13.70;51.70;;;;;;5050854;28;20082;-61
2022/01/17 11:10:24;;;;;;;213.27;67.40;;;13.80;83.20;;;;;;5047429;28;20356;-61
2022/01/17 11:12:53;;;;;;;199.65;69.32;;;13.70;51.80;;;;;;5058458;28;20128;-60
2022/01/17 11:15:21;;;;;;;214.38;68.43;;;13.70;52.60;;;;;;5047581;28;20136;-62
2022/01/17 11:17:50;;;;;;;217.23;71.00;;;13.70;52.90;;;;;;5049325;28;20178;-64
2022/01/17 11:20:19;;;;;;;208.18;66.00;;;13.70;52.40;;;;;;5047855;28;20517;-62
2022/01/17 11:22:49;;;;;;;210.90;69.20;;;13.60;52.10;;;;;;5047672;28;20431;-61
2022/01/17 11:25:22;;;;;;;222.25;69.03;;;13.50;51.90;;;;;;5048719;28;20516;-61
2022/01/17 11:27:50;;;;;;;231.75;73.20;;;13.50;52.70;;;;;;5048553;28;20146;-63
2022/01/17 11:30:16;;;;;;;240.88;71.32;;;13.50;52.90;;;;;;5049537;28;20539;-63
2022/01/17 11:32:45;;;;;;;188.88;68.20;;;13.40;53.10;;;;;;5048421;28;20421;-62
2022/01/17 11:35:13;;;;;;;199.10;66.07;;;13.40;53.00;;;;;;5065437;28;20161;-61
2022/01/17 11:38:02;;;;;;;222.05;70.75;;;13.30;52.00;;;;;;5048787;28;20100;-61
2022/01/17 11:40:37;;;;;;;209.55;68.45;;;13.30;52.50;;;;;;5047749;28;20162;-62
2022/01/17 11:43:35;;;;;;;232.13;70.68;;;13.30;53.00;;;;;;5047462;28;20103;-61
2022/01/17 11:46:32;;;;;;;219.27;70.85;;;13.30;53.10;;;;;;5047293;28;20143;-63
2022/01/17 11:49:07;;;;;;;206.87;68.80;;;13.30;54.10;;;;;;5048694;28;20084;-63
2022/01/17 11:51:49;;;;;;;194.63;69.57;;;13.20;58.00;;;;;;5048384;28;20081;-62
2022/01/17 11:54:20;;;;;;;210.77;68.15;;;13.80;95.10;;;;;;5047601;28;20422;-61
2022/01/17 11:56:48;;;;;;;223.75;67.50;;;13.50;91.60;;;;;;5048169;28;20089;-61
2022/01/17 11:59:34;;;;;;;211.15;70.10;;;13.40;53.30;;;;;;5047752;28;20111;-61
2022/01/17 12:02:15;;;;;;;194.77;66.70;;;13.40;53.80;;;;;;5046304;28;20089;-62
2022/01/17 12:05:02;;;;;;;206.18;65.88;;;13.40;53.40;;;;;;5047373;28;20120;-64
2022/01/17 12:07:39;;;;;;;210.25;67.95;;;13.40;52.50;;;;;;5048289;28;20055;-62
2022/01/17 12:10:30;;;;;;;216.75;67.75;;;13.30;52.80;;;;;;5047630;28;20069;-61
2022/01/17 12:13:43;;;;;;;182.00;65.05;;;13.30;52.70;;;;;;5040198;28;20642;-62
2022/01/17 12:16:17;;;;;;;209.43;71.80;;;13.40;52.60;;;;;;5043093;28;20545;-60
2022/01/17 12:19:02;;;;;;;190.82;69.10;;;13.30;52.90;;;;;;5047012;28;20447;-61
2022/01/17 12:21:36;;;;;;;195.48;66.32;;;13.80;84.60;;;;;;5047454;28;20630;-61
2022/01/17 12:24:18;;;;;;;191.55;67.88;;;13.30;52.00;;;;;;5046668;28;20080;-61
2022/01/17 12:26:57;;;;;;;205.40;69.55;;;;;;;;;;5063202;28;20070;-62
2022/01/17 12:29:36;;;;;;;203.65;71.47;;;;;;;;;;5048692;28;20024;-62
2022/01/17 12:32:05;;;;;;;194.75;68.72;;;13.40;58.00;;;;;;5046992;28;20509;-62
2022/01/17 12:34:39;;;;;;;212.30;66.53;;;;;;;;;;5048596;28;20059;-62
2022/01/17 12:37:30;;;;;;;178.40;64.78;;;13.30;52.90;;;;;;5063837;28;20087;-61
2022/01/17 12:40:20;;;;;;;187.02;66.07;;;13.20;51.40;;;;;;5048202;28;20076;-60
2022/01/17 12:43:02;;;;;;;197.55;67.28;;;13.20;51.80;;;;;;5046395;28;20231;-63
2022/01/17 12:45:38;;;;;;;181.60;63.60;;;13.20;52.30;;;;;;5047622;28;20446;-62
2022/01/17 12:48:10;;;;;;;191.00;65.28;;;13.20;52.70;;;;;;5046117;28;20589;-61
2022/01/17 12:50:40;;;;;;;200.93;65.68;;;13.00;63.90;;;;;;5045896;28;20093;-61
2022/01/17 12:53:09;;;;;;;189.57;69.13;;;13.40;76.90;;;;;;5048377;28;20025;-63
2022/01/17 12:55:46;;;;;;;195.85;65.00;;;;;;;;;;5030302;28;20025;-63
2022/01/17 12:58:36;;;;;;;188.38;63.17;;;13.10;51.50;;;;;;5046999;28;20055;-61
2022/01/17 13:01:03;;;;;;;170.32;63.45;;;;;;;;;;5046607;28;20025;-61
2022/01/17 13:03:32;;;;;;;;;;;13.10;52.10;;;;;;5047224;28;20249;-61
2022/01/17 13:06:00;;;;;;;195.25;64.97;;;12.90;73.20;;;;;;5047753;28;19964;-61
2022/01/17 13:08:27;;;;;;;177.07;65.03;;;12.90;70.80;;;;;;5048120;28;20112;-62
2022/01/17 13:10:55;;;;;;;173.30;63.50;;;12.60;51.90;;;;;;5066053;28;20100;-62
2022/01/17 13:13:23;;;;;;;167.70;65.85;;;12.90;52.00;;;;;;5046859;28;20093;-62
2022/01/17 13:16:11;;;;;;;175.73;66.50;;;12.60;51.80;;;;;;5047723;28;20567;-62
2022/01/17 13:18:38;;;;;;;195.27;64.38;;;12.90;52.90;;;;;;5046547;28;20070;-63